createdAt,value
2022-11-08T00:27:51.193Z,13.86
2022-11-08T00:30:19.440Z,13.88
2022-11-08T00:32:47.232Z,13.88
2022-11-08T00:35:15.059Z,13.89
2022-11-08T00:37:43.353Z,13.91
2022-11-08T00:40:12.640Z,13.89
2022-11-08T00:42:40.490Z,13.89
2022-11-08T00:45:10.506Z,13.88
2022-11-08T00:47:38.374Z,13.88
2022-11-08T00:50:06.723Z,13.89
2022-11-08T00:52:34.651Z,13.90
2022-11-08T00:55:02.622Z,13.91
2022-11-08T00:57:53.531Z,13.91
2022-11-08T01:00:20.503Z,13.89
2022-11-08T01:02:48.569Z,13.88
2022-11-08T01:05:16.457Z,13.90
2022-11-08T01:07:44.236Z,13.89
2022-11-08T01:10:12.356Z,13.86
2022-11-08T01:12:40.486Z,13.87
2022-11-08T01:15:09.297Z,13.90
2022-11-08T01:17:43.425Z,13.92
2022-11-08T01:20:18.104Z,13.93
2022-11-08T01:22:55.413Z,13.94
2022-11-08T01:25:26.310Z,13.92
2022-11-08T01:27:54.922Z,13.92
2022-11-08T01:30:25.329Z,13.93
2022-11-08T01:33:00.224Z,13.94
2022-11-08T01:35:34.349Z,13.94
2022-11-08T01:38:05.800Z,13.93
2022-11-08T01:40:51.754Z,13.92
2022-11-08T01:43:40.970Z,13.89
2022-11-08T01:46:37.975Z,13.90
2022-11-08T01:49:46.824Z,13.85
2022-11-08T01:52:26.949Z,13.85
2022-11-08T01:55:40.049Z,13.79
2022-11-08T02:01:04.250Z,13.81
2022-11-08T02:03:41.764Z,13.82
2022-11-08T02:06:18.681Z,13.85
2022-11-08T02:08:49.538Z,13.86
2022-11-08T02:11:19.802Z,13.87
2022-11-08T02:13:53.833Z,13.85
2022-11-08T02:16:50.217Z,13.87
2022-11-08T02:19:28.385Z,13.83
2022-11-08T02:22:09.003Z,13.84
2022-11-08T02:24:48.747Z,13.82
2022-11-08T02:27:26.326Z,13.84
2022-11-08T02:29:56.942Z,13.87
2022-11-08T02:32:43.773Z,13.84
2022-11-08T02:35:17.652Z,13.85
2022-11-08T02:37:47.769Z,13.85
2022-11-08T02:40:21.206Z,13.84
2022-11-08T02:43:10.435Z,13.82
2022-11-08T02:48:30.590Z,13.82
2022-11-08T02:51:03.608Z,13.83
2022-11-08T02:53:41.473Z,13.82
2022-11-08T02:56:24.910Z,13.79
2022-11-08T02:58:54.759Z,13.81
2022-11-08T03:01:40.161Z,13.79
2022-11-08T03:04:14.048Z,13.78
2022-11-08T03:06:52.736Z,13.75
2022-11-08T03:09:31.027Z,13.71
2022-11-08T03:12:16.386Z,13.65
2022-11-08T03:14:46.522Z,13.66
2022-11-08T03:17:29.742Z,13.62
2022-11-08T03:19:59.857Z,13.58
2022-11-08T03:22:31.926Z,13.56
2022-11-08T03:25:05.802Z,13.55
2022-11-08T03:27:50.891Z,13.52
2022-11-08T03:30:19.867Z,13.49
2022-11-08T03:32:54.949Z,13.48
2022-11-08T03:40:59.842Z,13.46
2022-11-08T03:43:41.834Z,13.45
2022-11-08T03:46:11.753Z,13.45
2022-11-08T03:48:42.754Z,13.43
2022-11-08T03:51:23.420Z,13.43
2022-11-08T03:53:53.583Z,13.40
2022-11-08T03:56:34.746Z,13.39
2022-11-08T03:59:10.317Z,13.38
2022-11-08T04:01:39.914Z,13.36
2022-11-08T04:04:12.015Z,13.34
2022-11-08T04:06:41.537Z,13.34
2022-11-08T04:09:12.112Z,13.32
2022-11-08T04:12:10.115Z,13.30
2022-11-08T04:15:01.409Z,13.28
2022-11-08T04:17:44.694Z,13.25
2022-11-08T04:20:31.846Z,13.23
2022-11-08T04:23:04.770Z,13.20
2022-11-08T04:25:50.753Z,13.19
2022-11-08T04:28:36.042Z,13.17
2022-11-08T04:31:11.686Z,13.17
2022-11-08T04:33:43.988Z,13.17
2022-11-08T04:36:18.557Z,13.13
2022-11-08T04:38:58.651Z,13.13
2022-11-08T04:41:36.787Z,13.12
2022-11-08T04:44:10.027Z,13.11
2022-11-08T04:46:41.596Z,13.10
2022-11-08T04:49:11.612Z,13.11
2022-11-08T04:51:44.765Z,13.13
2022-11-08T04:54:17.323Z,13.17
2022-11-08T04:56:51.116Z,13.19
2022-11-08T04:59:35.320Z,13.23
2022-11-08T05:02:09.309Z,13.24
2022-11-08T05:04:38.934Z,13.27
2022-11-08T05:07:08.207Z,13.27
2022-11-08T05:09:45.555Z,13.31
2022-11-08T05:12:38.459Z,13.28
2022-11-08T05:15:11.232Z,13.34
2022-11-08T05:17:54.728Z,13.32
2022-11-08T05:20:51.553Z,13.37
2022-11-08T05:23:27.682Z,13.38
2022-11-08T05:25:57.905Z,13.41
2022-11-08T05:28:35.945Z,13.38
2022-11-08T05:31:05.542Z,13.39
2022-11-08T05:36:25.587Z,13.39
2022-11-08T05:41:45.995Z,13.43
2022-11-08T05:44:22.653Z,13.43
2022-11-08T05:46:53.152Z,13.43
2022-11-08T05:49:30.198Z,13.39
2022-11-08T05:52:20.241Z,13.35
2022-11-08T05:54:53.962Z,13.32
2022-11-08T05:57:25.750Z,13.29
2022-11-08T06:00:48.552Z,13.26
2022-11-08T06:03:20.899Z,13.24
2022-11-08T06:05:52.241Z,13.17
2022-11-08T06:08:20.094Z,13.19
2022-11-08T06:10:48.488Z,13.19
2022-11-08T06:13:16.292Z,13.18
2022-11-08T06:15:44.170Z,13.17
2022-11-08T06:18:12.093Z,13.18
2022-11-08T06:20:39.796Z,13.18
2022-11-08T06:23:09.105Z,13.17
2022-11-08T06:25:38.336Z,13.16
2022-11-08T06:28:06.639Z,13.15
2022-11-08T06:30:34.397Z,13.17
2022-11-08T06:33:02.305Z,13.15
2022-11-08T06:35:30.237Z,13.16
2022-11-08T06:38:01.260Z,13.16
2022-11-08T06:40:32.642Z,13.15
2022-11-08T06:43:00.596Z,13.16
2022-11-08T06:45:29.170Z,13.16
2022-11-08T06:47:58.466Z,13.16
2022-11-08T06:50:26.759Z,13.13
2022-11-08T06:52:57.650Z,13.12
2022-11-08T06:55:25.821Z,13.12
2022-11-08T06:57:58.363Z,13.14
2022-11-08T07:00:27.347Z,13.17
2022-11-08T07:02:55.620Z,13.18
2022-11-08T07:05:23.600Z,13.17
2022-11-08T07:07:52.895Z,13.20
2022-11-08T07:10:21.827Z,13.19
2022-11-08T07:12:50.901Z,13.18
2022-11-08T07:15:21.403Z,13.20
2022-11-08T07:17:49.285Z,13.24
2022-11-08T07:20:17.203Z,13.30
2022-11-08T07:22:45.041Z,13.36
2022-11-08T07:25:13.142Z,13.43
2022-11-08T07:27:41.232Z,13.48
2022-11-08T07:30:10.125Z,13.56
2022-11-08T07:32:39.248Z,13.65
2022-11-08T07:35:08.175Z,13.81
2022-11-08T07:37:36.023Z,13.87
2022-11-08T07:40:04.054Z,13.90
2022-11-08T07:42:56.901Z,13.92
2022-11-08T07:45:19.908Z,13.94
2022-11-08T07:47:49.405Z,13.95
2022-11-08T07:50:18.091Z,13.95
2022-11-08T07:52:50.559Z,13.97
2022-11-08T07:55:18.646Z,14.00
2022-11-08T07:57:46.592Z,14.03
2022-11-08T08:00:15.963Z,14.08
2022-11-08T08:02:44.202Z,14.10
2022-11-08T08:05:16.599Z,14.14
2022-11-08T08:07:44.484Z,14.17
2022-11-08T08:10:12.313Z,14.20
2022-11-08T08:12:40.016Z,14.23
2022-11-08T08:15:09.128Z,14.27
2022-11-08T08:17:37.300Z,14.27
2022-11-08T08:20:05.799Z,14.26
2022-11-08T08:22:34.987Z,14.22
2022-11-08T08:25:03.324Z,14.20
2022-11-08T08:27:31.290Z,14.18
2022-11-08T08:29:59.152Z,14.17
2022-11-08T08:32:31.298Z,14.12
2022-11-08T08:34:59.477Z,14.15
2022-11-08T08:37:27.224Z,14.14
2022-11-08T08:39:56.558Z,14.16
2022-11-08T08:42:24.427Z,14.19
2022-11-08T08:44:52.192Z,14.21
2022-11-08T08:47:20.082Z,14.22
2022-11-08T08:49:48.080Z,14.25
2022-11-08T08:52:16.053Z,14.25
2022-11-08T08:54:44.031Z,14.28
2022-11-08T08:57:13.281Z,14.32
2022-11-08T09:02:29.084Z,14.36
2022-11-08T09:04:56.901Z,14.39
2022-11-08T09:07:24.866Z,14.40
2022-11-08T09:09:52.602Z,14.40
2022-11-08T09:12:21.781Z,14.43
2022-11-08T09:14:49.776Z,14.45
2022-11-08T09:17:17.573Z,14.46
2022-11-08T09:19:46.349Z,14.50
2022-11-08T09:22:16.162Z,14.52
2022-11-08T09:24:44.147Z,14.56
2022-11-08T09:27:12.449Z,14.57
2022-11-08T09:29:41.637Z,14.56
2022-11-08T09:32:10.142Z,14.62
2022-11-08T09:34:37.936Z,14.63
2022-11-08T09:37:06.074Z,14.67
2022-11-08T09:39:33.894Z,14.71
2022-11-08T09:42:25.263Z,14.73
2022-11-08T09:45:14.684Z,14.79
2022-11-08T09:47:47.797Z,14.86
2022-11-08T09:50:24.506Z,14.93
2022-11-08T09:53:00.818Z,14.99
2022-11-08T09:55:33.030Z,15.05
2022-11-08T09:58:08.903Z,15.10
2022-11-08T10:00:41.430Z,15.12
2022-11-08T10:03:15.295Z,15.16
2022-11-08T10:05:48.432Z,15.18
2022-11-08T10:08:27.711Z,15.20
2022-11-08T10:11:33.349Z,15.22
2022-11-08T10:14:15.739Z,15.29
2022-11-08T10:16:52.062Z,15.34
2022-11-08T10:19:48.102Z,15.38
2022-11-08T10:22:20.497Z,15.36
2022-11-08T10:24:55.910Z,15.44
2022-11-08T10:27:33.179Z,15.48
2022-11-08T10:30:03.953Z,15.48
2022-11-08T10:32:35.744Z,15.55
2022-11-08T10:35:17.696Z,15.58
2022-11-08T10:37:45.961Z,15.62
2022-11-08T10:40:23.756Z,15.63
2022-11-08T10:42:58.522Z,15.67
2022-11-08T10:45:26.276Z,15.70
2022-11-08T10:47:56.154Z,15.66
2022-11-08T10:50:38.458Z,15.67
2022-11-08T10:53:07.688Z,15.71
2022-11-08T10:55:38.478Z,15.73
2022-11-08T10:58:32.792Z,15.66
2022-11-08T11:01:08.701Z,15.73
2022-11-08T11:03:36.523Z,15.73
2022-11-08T11:06:06.246Z,15.77
2022-11-08T11:08:34.564Z,15.80
2022-11-08T11:11:25.071Z,15.76
2022-11-08T11:14:18.116Z,15.82
2022-11-08T11:16:56.624Z,15.91
2022-11-08T11:19:26.308Z,15.91
2022-11-08T11:21:58.569Z,15.96
2022-11-08T11:24:26.921Z,16.04
2022-11-08T11:27:04.542Z,16.06
2022-11-08T11:29:34.947Z,16.11
2022-11-08T11:32:25.637Z,16.02
2022-11-08T11:34:57.214Z,16.04
2022-11-08T11:37:32.638Z,16.08
2022-11-08T11:40:08.385Z,16.13
2022-11-08T11:42:46.106Z,16.18
2022-11-08T11:45:21.080Z,16.21
2022-11-08T11:47:53.584Z,16.30
2022-11-08T11:50:32.194Z,16.31
2022-11-08T11:53:02.132Z,16.33
2022-11-08T11:55:40.211Z,16.39
2022-11-08T11:58:22.429Z,16.38
2022-11-08T12:00:59.703Z,16.45
2022-11-08T12:03:43.769Z,16.49
2022-11-08T12:06:27.599Z,16.53
2022-11-08T12:09:17.525Z,16.55
2022-11-08T12:11:59.897Z,16.57
2022-11-08T12:14:45.768Z,16.63
2022-11-08T12:17:39.912Z,16.70
2022-11-08T12:20:26.639Z,16.84
2022-11-08T12:23:07.052Z,16.89
2022-11-08T12:25:41.986Z,16.97
2022-11-08T12:28:24.881Z,16.98
2022-11-08T12:31:00.056Z,17.06
2022-11-08T12:33:42.662Z,17.10
2022-11-08T12:36:23.030Z,17.17
2022-11-08T12:39:05.810Z,17.18
2022-11-08T12:41:43.709Z,17.23
2022-11-08T12:44:35.697Z,17.23
2022-11-08T12:47:18.960Z,17.28
2022-11-08T12:50:00.157Z,17.35
2022-11-08T12:52:42.220Z,17.36
2022-11-08T12:55:16.146Z,17.43
2022-11-08T12:57:46.383Z,17.46
2022-11-08T13:00:18.596Z,17.42
2022-11-08T13:03:04.444Z,17.41
2022-11-08T13:05:37.028Z,17.47
2022-11-08T13:08:14.214Z,17.48
2022-11-08T13:10:50.846Z,17.44
2022-11-08T13:13:28.276Z,17.42
2022-11-08T13:16:14.531Z,17.37
2022-11-08T13:18:48.350Z,17.34
2022-11-08T13:21:43.168Z,17.31
2022-11-08T13:24:45.486Z,17.23
2022-11-08T13:27:33.406Z,17.19
2022-11-08T13:30:21.560Z,17.26
2022-11-08T13:32:56.150Z,17.26
2022-11-08T13:35:31.455Z,17.26
2022-11-08T13:38:16.758Z,17.24
2022-11-08T13:40:55.799Z,17.25
2022-11-08T13:43:27.835Z,17.27
2022-11-08T13:45:56.276Z,17.31
2022-11-08T13:48:36.991Z,17.27
2022-11-08T13:51:26.833Z,17.25
2022-11-08T13:53:59.153Z,17.32
2022-11-08T13:56:49.381Z,17.26
2022-11-08T13:59:49.976Z,17.29
2022-11-08T14:02:37.045Z,17.25
2022-11-08T14:05:32.807Z,17.19
2022-11-08T14:08:23.385Z,17.16
2022-11-08T14:11:07.532Z,17.18
2022-11-08T14:13:47.831Z,17.19
2022-11-08T14:16:20.275Z,17.19
2022-11-08T14:18:48.358Z,17.19
2022-11-08T14:21:19.249Z,17.20
2022-11-08T14:23:50.513Z,17.19
2022-11-08T14:26:23.614Z,17.23
2022-11-08T14:28:53.554Z,17.26
2022-11-08T14:31:26.974Z,17.26
2022-11-08T14:33:56.186Z,17.30
2022-11-08T14:36:25.276Z,17.29
2022-11-08T14:39:02.936Z,17.30
2022-11-08T14:41:34.239Z,17.31
2022-11-08T14:44:03.771Z,17.31
2022-11-08T14:46:34.223Z,17.27
2022-11-08T14:49:11.293Z,17.24
2022-11-08T14:51:39.358Z,17.23
2022-11-08T14:54:17.427Z,17.22
2022-11-08T14:56:47.225Z,17.23
2022-11-08T14:59:15.923Z,17.23
2022-11-08T15:01:48.258Z,17.24
2022-11-08T15:04:18.288Z,17.24
2022-11-08T15:06:49.656Z,17.24
2022-11-08T15:09:21.939Z,17.24
2022-11-08T15:11:54.434Z,17.20
2022-11-08T15:14:24.612Z,17.21
2022-11-08T15:16:58.624Z,17.22
2022-11-08T15:19:37.102Z,17.20
2022-11-08T15:22:24.473Z,17.10
2022-11-08T15:25:01.874Z,17.12
2022-11-08T15:27:31.251Z,17.14
2022-11-08T15:30:03.975Z,17.10
2022-11-08T15:32:37.962Z,17.03
2022-11-08T15:35:08.136Z,17.02
2022-11-08T15:37:38.259Z,16.95
2022-11-08T15:40:17.139Z,16.90
2022-11-08T15:42:48.431Z,16.89
2022-11-08T15:45:28.939Z,16.80
2022-11-08T15:48:11.704Z,16.75
2022-11-08T15:50:39.705Z,16.74
2022-11-08T15:53:07.730Z,16.74
2022-11-08T15:55:39.357Z,16.71
2022-11-08T15:58:15.097Z,16.68
2022-11-08T16:00:47.111Z,16.66
2022-11-08T16:03:15.112Z,16.65
2022-11-08T16:05:42.948Z,16.63
2022-11-08T16:08:13.302Z,16.62
2022-11-08T16:10:46.024Z,16.60
2022-11-08T16:13:20.143Z,16.61
2022-11-08T16:15:48.178Z,16.61
2022-11-08T16:18:17.146Z,16.59
2022-11-08T16:20:45.203Z,16.58
2022-11-08T16:23:14.707Z,16.55
2022-11-08T16:25:45.400Z,16.52
2022-11-08T16:28:20.499Z,16.52
2022-11-08T16:30:48.818Z,16.58
2022-11-08T16:33:22.378Z,16.56
2022-11-08T16:35:51.474Z,16.57
2022-11-08T16:38:23.321Z,16.52
2022-11-08T16:40:51.258Z,16.53
2022-11-08T16:43:20.762Z,16.51
2022-11-08T16:46:06.253Z,16.49
2022-11-08T16:48:36.686Z,16.46
2022-11-08T16:51:06.816Z,16.46
2022-11-08T16:53:37.561Z,16.45
2022-11-08T16:56:05.326Z,16.45
2022-11-08T16:58:34.542Z,16.47
2022-11-08T17:01:09.989Z,16.51
2022-11-08T17:03:38.346Z,16.53
2022-11-08T17:06:06.435Z,16.59
2022-11-08T17:08:34.312Z,16.60
2022-11-08T17:11:02.191Z,16.64
2022-11-08T17:13:30.182Z,16.65
2022-11-08T17:15:59.396Z,16.69
2022-11-08T17:18:27.416Z,16.71
2022-11-08T17:20:55.846Z,16.72
2022-11-08T17:23:24.000Z,16.74
2022-11-08T17:25:51.834Z,16.74
2022-11-08T17:28:19.902Z,16.74
2022-11-08T17:30:47.984Z,16.74
2022-11-08T17:33:17.491Z,16.75
2022-11-08T17:35:45.720Z,16.74
2022-11-08T17:38:13.841Z,16.77
2022-11-08T17:40:42.776Z,16.77
2022-11-08T17:43:10.765Z,16.80
2022-11-08T17:45:38.499Z,16.76
2022-11-08T17:48:06.460Z,16.78
2022-11-08T17:50:35.618Z,16.81
2022-11-08T17:53:03.687Z,16.81
2022-11-08T17:55:31.693Z,16.78
2022-11-08T17:57:59.501Z,16.75
2022-11-08T18:00:27.344Z,16.74
2022-11-08T18:02:55.268Z,16.72
2022-11-08T18:05:23.087Z,16.65
2022-11-08T18:07:52.221Z,16.61
2022-11-08T18:10:20.608Z,16.62
2022-11-08T18:12:48.854Z,16.58
2022-11-08T18:15:16.883Z,16.55
2022-11-08T18:17:44.848Z,16.52
2022-11-08T18:20:13.422Z,16.49
2022-11-08T18:22:41.255Z,16.51
2022-11-08T18:25:10.752Z,16.50
2022-11-08T18:27:38.822Z,16.51
2022-11-08T18:30:07.832Z,16.48
2022-11-08T18:32:37.417Z,16.47
2022-11-08T18:35:06.112Z,16.45
2022-11-08T18:37:33.900Z,16.45
2022-11-08T18:40:01.990Z,16.45
2022-11-08T18:42:31.477Z,16.44
2022-11-08T18:44:59.579Z,16.39
2022-11-08T18:47:28.474Z,16.40
2022-11-08T18:49:59.642Z,16.36
2022-11-08T18:52:27.465Z,16.34
2022-11-08T18:54:55.295Z,16.34
2022-11-08T18:57:23.817Z,16.32
2022-11-08T18:59:57.217Z,16.32
2022-11-08T19:02:28.746Z,16.32
2022-11-08T19:05:00.967Z,16.31
2022-11-08T19:07:29.306Z,16.27
2022-11-08T19:09:57.305Z,16.29
2022-11-08T19:12:25.312Z,16.26
2022-11-08T19:14:54.533Z,16.24
2022-11-08T19:17:22.531Z,16.21
2022-11-08T19:19:50.485Z,16.21
2022-11-08T19:22:18.475Z,16.26
2022-11-08T19:24:47.897Z,16.28
2022-11-08T19:27:15.967Z,16.29
2022-11-08T19:29:43.834Z,16.33
2022-11-08T19:32:13.111Z,16.36
2022-11-08T19:34:41.324Z,16.37
2022-11-08T19:37:09.164Z,16.38
2022-11-08T19:39:37.073Z,16.38
2022-11-08T19:42:07.208Z,16.39
2022-11-08T19:44:35.177Z,16.42
2022-11-08T19:47:03.029Z,16.41
2022-11-08T19:49:33.248Z,16.42
2022-11-08T19:52:01.151Z,16.45
2022-11-08T19:54:29.273Z,16.47
2022-11-08T19:57:05.942Z,16.46
2022-11-08T19:59:34.371Z,16.48
2022-11-08T20:02:02.334Z,16.49
2022-11-08T20:04:30.409Z,16.51
2022-11-08T20:06:59.957Z,16.52
2022-11-08T20:09:30.737Z,16.52
2022-11-08T20:11:58.993Z,16.53
2022-11-08T20:14:26.897Z,16.52
2022-11-08T20:16:55.634Z,16.53
2022-11-08T20:19:23.672Z,16.51
2022-11-08T20:21:55.799Z,16.48
2022-11-08T20:24:25.298Z,16.46
2022-11-08T20:26:53.358Z,16.43
2022-11-08T20:29:21.504Z,16.38
2022-11-08T20:31:51.867Z,16.37
2022-11-08T20:34:20.100Z,16.34
2022-11-08T20:36:48.474Z,16.30
2022-11-08T20:39:17.219Z,16.29
2022-11-08T20:41:46.582Z,16.27
2022-11-08T20:44:14.786Z,16.26
2022-11-08T20:46:42.957Z,16.23
2022-11-08T20:49:10.757Z,16.21
2022-11-08T20:51:38.851Z,16.19
2022-11-08T20:54:06.922Z,16.19
2022-11-08T20:56:35.270Z,16.16
2022-11-08T20:59:04.820Z,16.13
2022-11-08T21:01:34.343Z,16.13
2022-11-08T21:04:02.634Z,16.13
2022-11-08T21:06:35.560Z,16.11
2022-11-08T21:09:30.120Z,16.10
2022-11-08T21:11:52.877Z,16.08
2022-11-08T21:14:23.599Z,16.08
2022-11-08T21:17:21.537Z,16.04
2022-11-08T21:19:39.692Z,16.04
2022-11-08T21:22:16.683Z,16.00
2022-11-08T21:24:45.841Z,16.02
2022-11-08T21:27:14.279Z,16.03
2022-11-08T21:29:43.878Z,16.01
2022-11-08T21:32:11.733Z,15.99
2022-11-08T21:34:45.247Z,15.98
2022-11-08T21:37:13.837Z,15.96
2022-11-08T21:39:42.220Z,15.98
2022-11-08T21:42:10.023Z,15.98
2022-11-08T21:44:37.889Z,15.97
2022-11-08T21:47:07.282Z,15.99
2022-11-08T21:49:35.144Z,16.00
2022-11-08T21:52:05.541Z,16.03
2022-11-08T21:54:33.355Z,16.07
2022-11-08T21:57:01.177Z,16.08
2022-11-08T21:59:28.993Z,16.09
2022-11-08T22:01:56.856Z,16.10
2022-11-08T22:04:26.100Z,16.11
2022-11-08T22:06:54.159Z,16.12
2022-11-08T22:09:22.093Z,16.12
2022-11-08T22:11:50.150Z,16.14
2022-11-08T22:14:17.933Z,16.16
2022-11-08T22:16:45.819Z,16.15
2022-11-08T22:19:14.256Z,16.18
2022-11-08T22:21:46.152Z,16.20
2022-11-08T22:24:17.164Z,16.22
2022-11-08T22:26:46.055Z,16.23
2022-11-08T22:29:14.560Z,16.27
2022-11-08T22:31:42.921Z,16.24
2022-11-08T22:34:11.747Z,16.30
2022-11-08T22:36:44.870Z,16.32
2022-11-08T22:39:17.628Z,16.33
2022-11-08T22:41:46.885Z,16.33
2022-11-08T22:44:15.503Z,16.35
2022-11-08T22:46:44.587Z,16.35
2022-11-08T22:49:13.442Z,16.34
2022-11-08T22:51:42.312Z,16.32
2022-11-08T22:54:10.879Z,16.27
2022-11-08T22:56:41.952Z,16.24
2022-11-08T22:59:10.008Z,16.23
2022-11-08T23:01:38.162Z,16.20
2022-11-08T23:04:06.043Z,16.17
2022-11-08T23:06:34.018Z,16.18
2022-11-08T23:09:01.960Z,16.18
2022-11-08T23:11:47.100Z,16.15
2022-11-08T23:14:37.174Z,16.12
2022-11-08T23:17:07.189Z,16.10
2022-11-08T23:19:52.504Z,16.08
2022-11-08T23:22:38.450Z,16.07
2022-11-08T23:25:07.186Z,16.05
2022-11-08T23:27:52.331Z,16.06
2022-11-08T23:30:39.175Z,16.04
2022-11-08T23:33:07.651Z,16.03
2022-11-08T23:35:35.806Z,16.04
2022-11-08T23:38:03.863Z,16.01
2022-11-08T23:40:48.878Z,16.03
2022-11-08T23:43:36.337Z,16.01
2022-11-08T23:46:11.242Z,15.99
2022-11-08T23:48:41.124Z,15.98
2022-11-08T23:51:09.240Z,15.97
2022-11-08T23:53:39.891Z,15.95
2022-11-08T23:56:08.252Z,15.95
2022-11-08T23:58:36.020Z,15.96
